Time;durP1;ratioP1;P1;durP2;ratioP2;P2;SDS_P1;SDS_P2;PMS_P1;PMS_P2;Temp;Humidity;BMP_temperature;BMP_pressure;BME280_temperature;BME280_humidity;BME280_pressure;Samples;Min_cycle;Max_cycle;Signal;HPM_P1;HPM_P2
2023/12/05 00:02:08;;;;;;;9.80;1.75;;;;;;;6.91;100.00;100647.63;5056160;28;20048;-67
2023/12/05 00:04:36;;;;;;;6.35;2.00;;;;;;;6.93;100.00;100650.19;5040876;28;20045;-67
2023/12/05 00:07:03;;;;;;;9.93;2.53;;;;;;;6.76;100.00;100643.63;5058903;28;20058;-67
2023/12/05 00:09:30;;;;;;;7.95;2.63;;;;;;;6.87;100.00;100646.00;5056253;28;20060;-67
2023/12/05 00:11:56;;;;;;;11.48;2.58;;;;;;;6.89;100.00;100645.94;5038020;28;20053;-67
2023/12/05 00:14:23;;;;;;;5.50;1.70;;;;;;;6.95;100.00;100651.00;5040482;28;20041;-67
2023/12/05 00:16:50;;;;;;;9.30;2.40;;;;;;;6.81;100.00;100652.16;5034609;28;20084;-67
2023/12/05 00:19:16;;;;;;;12.10;3.08;;;;;;;6.52;100.00;100652.00;5048407;28;20151;-67
2023/12/05 00:21:43;;;;;;;9.55;2.65;;;;;;;6.69;100.00;100665.47;5053217;28;20052;-67
2023/12/05 00:24:10;;;;;;;8.43;2.47;;;;;;;6.66;100.00;100665.56;5049647;28;20387;-67
2023/12/05 00:26:37;;;;;;;11.82;2.75;;;;;;;6.69;100.00;100665.47;5060772;28;20069;-67
2023/12/05 00:29:04;;;;;;;11.82;2.67;;;;;;;6.86;100.00;100659.88;5058002;28;20052;-67
2023/12/05 00:31:30;;;;;;;7.15;1.98;;;;;;;6.82;100.00;100655.66;5066036;28;20048;-67
2023/12/05 00:33:57;;;;;;;11.05;2.35;;;;;;;6.92;100.00;100659.72;5043817;28;20057;-67
2023/12/05 00:36:24;;;;;;;13.57;2.65;;;;;;;6.79;100.00;100651.34;5041597;28;20123;-67
2023/12/05 00:38:50;;;;;;;12.27;2.33;;;;;;;6.85;100.00;100655.56;5049352;28;20098;-67
2023/12/05 00:41:17;;;;;;;9.15;2.83;;;;;;;6.93;100.00;100660.59;5055697;28;20151;-67
2023/12/05 00:43:44;;;;;;;8.18;2.22;;;;;;;6.87;100.00;100661.59;5057728;28;20052;-67
2023/12/05 00:46:11;;;;;;;12.10;2.40;;;;;;;6.90;100.00;100661.50;5048993;28;20045;-67
2023/12/05 00:48:37;;;;;;;8.40;2.47;;;;;;;7.11;100.00;100674.91;5062493;28;20059;-67
2023/12/05 00:51:04;;;;;;;11.95;2.40;;;;;;;6.94;100.00;100667.50;5048000;28;20107;-67
2023/12/05 00:53:32;;;;;;;7.75;2.35;;;;;;;6.80;100.00;100660.88;5045879;28;20049;-67
2023/12/05 00:55:59;;;;;;;9.20;2.15;;;;;;;7.00;100.00;100672.56;5048323;28;20037;-67
2023/12/05 00:58:25;;;;;;;8.52;2.00;;;;;;;6.95;100.00;100666.63;5049226;28;20438;-67
2023/12/05 01:00:52;;;;;;;8.32;2.20;;;;;;;6.87;100.00;100660.72;5049376;28;20055;-67
2023/12/05 01:03:20;;;;;;;9.38;2.10;;;;;;;6.87;100.00;100673.75;5057573;28;20147;-67
2023/12/05 01:05:47;;;;;;;9.15;3.47;;;;;;;6.90;100.00;100663.28;5049022;28;20041;-68
2023/12/05 01:08:14;;;;;;;9.35;2.58;;;;;;;6.88;100.00;100668.50;5065978;28;20049;-68
2023/12/05 01:10:40;;;;;;;9.20;2.92;;;;;;;6.88;100.00;100667.66;5049381;28;20073;-68
2023/12/05 01:13:07;;;;;;;8.88;2.10;;;;;;;6.89;100.00;100665.03;5037306;28;20055;-67
2023/12/05 01:15:34;;;;;;;9.60;2.50;;;;;;;6.89;100.00;100671.97;5047266;28;20051;-68
2023/12/05 01:18:00;;;;;;;10.00;2.50;;;;;;;6.75;100.00;100672.31;5051830;28;20110;-68
2023/12/05 01:20:28;;;;;;;7.82;2.10;;;;;;;6.87;100.00;100665.94;5049011;28;20052;-68
2023/12/05 01:22:55;;;;;;;9.27;2.55;;;;;;;6.72;100.00;100664.56;5049156;28;20053;-68
2023/12/05 01:25:21;;;;;;;9.15;2.53;;;;;;;6.68;100.00;100674.19;5035361;28;20061;-68
2023/12/05 01:27:48;;;;;;;13.68;3.78;;;;;;;6.61;100.00;100668.25;5046786;28;20138;-67
2023/12/05 01:30:15;;;;;;;12.75;2.80;;;;;;;6.61;100.00;100673.44;5051655;28;20168;-68
2023/12/05 01:32:41;;;;;;;8.77;1.98;;;;;;;6.57;100.00;100670.94;5047546;28;20087;-68
2023/12/05 01:35:08;;;;;;;7.68;2.17;;;;;;;6.61;100.00;100678.66;5046662;28;20133;-68
2023/12/05 01:37:37;;;;;;;8.82;2.45;;;;;;;6.59;100.00;100682.19;5052368;28;20045;-67
2023/12/05 01:40:06;;;;;;;8.73;2.67;;;;;;;6.60;100.00;100686.50;5057406;28;20173;-67
2023/12/05 01:42:37;;;;;;;7.50;2.28;;;;;;;6.52;100.00;100680.63;5054700;28;20406;-68
2023/12/05 01:45:10;;;;;;;9.25;2.35;;;;;;;6.55;100.00;100676.19;5037059;28;20037;-67
2023/12/05 01:47:40;;;;;;;7.30;2.22;;;;;;;6.52;100.00;100673.66;5042035;28;20057;-67
2023/12/05 01:50:10;;;;;;;8.77;2.47;;;;;;;6.59;100.00;100680.44;5039713;28;20080;-67
2023/12/05 01:52:41;;;;;;;5.57;2.30;;;;;;;6.58;100.00;100685.66;5051499;28;20060;-68
2023/12/05 01:55:09;;;;;;;6.53;1.90;;;;;;;6.57;100.00;100682.22;5057111;28;20048;-68
2023/12/05 01:57:36;;;;;;;13.65;2.03;;;;;;;6.49;100.00;100683.28;5070738;28;20062;-68
2023/12/05 02:00:07;;;;;;;11.43;2.40;;;;;;;6.49;100.00;100678.91;5058838;28;20045;-68
2023/12/05 02:02:35;;;;;;;13.32;2.45;;;;;;;6.37;100.00;100673.97;5054591;28;20049;-68
2023/12/05 02:05:03;;;;;;;10.73;2.63;;;;;;;6.40;100.00;100666.97;5035976;28;20141;-68
2023/12/05 02:07:31;;;;;;;10.45;2.28;;;;;;;6.68;100.00;100687.19;5044786;28;20064;-68
2023/12/05 02:09:58;;;;;;;6.50;2.20;;;;;;;6.83;100.00;100696.38;5055496;28;20053;-68
2023/12/05 02:12:24;;;;;;;9.02;2.70;;;;;;;6.81;100.00;100686.00;5056390;28;20566;-67
2023/12/05 02:14:52;;;;;;;5.20;1.90;;;;;;;6.89;100.00;100703.19;5052260;28;20055;-68
2023/12/05 02:17:29;;;;;;;6.85;2.10;;;;;;;6.92;100.00;100703.97;5041357;28;20087;-68
2023/12/05 02:20:08;;;;;;;7.95;2.20;;;;;;;6.84;100.00;100703.31;5054037;28;20053;-68
2023/12/05 02:22:54;;;;;;;11.18;3.47;;;;;;;6.71;100.00;100712.28;5040209;28;20103;-68
2023/12/05 02:25:27;;;;;;;9.25;2.35;;;;;;;6.84;100.00;100711.13;5039246;28;20056;-68
2023/12/05 02:27:53;;;;;;;9.93;2.60;;;;;;;6.54;100.00;100697.88;5051251;28;20514;-67
2023/12/05 02:30:20;;;;;;;5.72;1.75;;;;;;;6.61;100.00;100714.22;5062644;28;20053;-67
2023/12/05 02:32:47;;;;;;;6.40;1.73;;;;;;;6.71;100.00;100704.47;5051766;28;20118;-68
2023/12/05 02:35:13;;;;;;;11.35;2.42;;;;;;;6.63;100.00;100699.44;5053189;28;20044;-67
2023/12/05 02:37:57;;;;;;;6.68;2.35;;;;;;;6.59;100.00;100721.22;5050874;28;20057;-67
2023/12/05 02:40:29;;;;;;;7.50;2.35;;;;;;;6.51;100.00;100712.72;5046857;28;20063;-68
2023/12/05 02:42:57;;;;;;;6.40;2.13;;;;;;;6.32;100.00;100705.31;5044508;28;20053;-67
2023/12/05 02:45:28;;;;;;;7.93;1.92;;;;;;;6.15;100.00;100712.56;5051238;28;20041;-68
2023/12/05 02:47:57;;;;;;;13.68;2.70;;;;;;;5.85;100.00;100697.50;5049635;28;20052;-68
2023/12/05 02:50:24;;;;;;;9.07;2.22;;;;;;;5.63;100.00;100701.38;5044705;28;20549;-68
2023/12/05 02:52:51;;;;;;;7.93;2.33;;;;;;;5.61;100.00;100682.34;5050776;28;20380;-67
2023/12/05 02:55:17;;;;;;;6.47;2.50;;;;;;;5.58;100.00;100687.59;5048277;28;20391;-68
2023/12/05 02:57:45;;;;;;;8.18;2.40;;;;;;;5.43;100.00;100686.97;5047243;28;20053;-68
2023/12/05 03:00:12;;;;;;;9.63;2.30;;;;;;;5.39;100.00;100676.69;5046138;28;20060;-68
2023/12/05 03:02:39;;;;;;;9.20;2.50;;;;;;;5.10;100.00;100678.03;5036214;28;20080;-67
2023/12/05 03:05:06;;;;;;;7.80;2.55;;;;;;;5.14;100.00;100683.13;5040391;28;20053;-67
2023/12/05 03:07:33;;;;;;;9.50;2.63;;;;;;;5.24;100.00;100672.59;5044474;28;20060;-67
2023/12/05 03:09:59;;;;;;;8.23;2.33;;;;;;;5.35;100.00;100682.81;5050099;28;20067;-67
2023/12/05 03:12:26;;;;;;;6.93;2.42;;;;;;;5.42;100.00;100671.44;5050779;28;20489;-68
2023/12/05 03:14:53;;;;;;;7.25;1.90;;;;;;;5.43;100.00;100671.41;5051853;28;20053;-67
2023/12/05 03:17:20;;;;;;;7.32;2.22;;;;;;;5.51;100.00;100687.72;5052127;28;20139;-68
2023/12/05 03:19:47;;;;;;;7.53;2.22;;;;;;;5.57;100.00;100685.91;5060901;28;20543;-68
2023/12/05 03:22:14;;;;;;;8.70;1.95;;;;;;;5.55;100.00;100691.13;5047596;28;20045;-68
2023/12/05 03:24:41;;;;;;;8.68;2.10;;;;;;;5.54;100.00;100685.94;5034936;28;20140;-67
2023/12/05 03:27:08;;;;;;;7.95;2.10;;;;;;;5.55;100.00;100691.13;5049930;28;20095;-67
2023/12/05 03:29:34;;;;;;;8.35;2.00;;;;;;;5.47;100.00;100687.78;5043632;28;20201;-68
2023/12/05 03:32:01;;;;;;;5.97;1.85;;;;;;;5.48;100.00;100698.16;5045255;28;20041;-68
2023/12/05 03:34:28;;;;;;;9.95;2.47;;;;;;;5.56;100.00;100694.56;5041908;28;20053;-68
2023/12/05 03:36:54;;;;;;;6.88;1.90;;;;;;;5.44;100.00;100690.47;5041849;28;20080;-68
2023/12/05 03:39:21;;;;;;;10.02;2.42;;;;;;;5.40;100.00;100700.03;5044582;28;20053;-68
2023/12/05 03:41:48;;;;;;;10.23;2.65;;;;;;;5.30;100.00;100699.31;5045579;28;20103;-69
2023/12/05 03:44:15;;;;;;;10.27;2.67;;;;;;;5.16;100.00;100697.84;5047987;28;20048;-68
2023/12/05 03:46:41;;;;;;;9.45;2.67;;;;;;;5.01;100.00;100694.59;5039658;28;20065;-68
2023/12/05 03:49:08;;;;;;;10.73;2.70;;;;;;;4.85;100.00;100695.69;5040189;28;20045;-68
2023/12/05 03:51:34;;;;;;;11.32;3.03;;;;;;;4.92;100.00;100695.59;5048136;28;20049;-68
2023/12/05 03:54:01;;;;;;;7.85;2.63;;;;;;;4.79;100.00;100696.66;5047776;28;20127;-68
2023/12/05 03:56:28;;;;;;;8.43;2.33;;;;;;;4.67;100.00;100691.63;5045095;28;20068;-68
2023/12/05 03:58:55;;;;;;;18.35;2.60;;;;;;;4.59;100.00;100683.13;5033645;28;20479;-68
2023/12/05 04:01:21;;;;;;;9.73;2.50;;;;;;;4.60;100.00;100693.44;5053661;28;20052;-67
2023/12/05 04:03:48;;;;;;;11.73;2.95;;;;;;;4.52;100.00;100693.56;5054621;28;20410;-68
2023/12/05 04:06:19;;;;;;;11.93;3.13;;;;;;;4.61;100.00;100704.69;5046501;28;20046;-67
2023/12/05 04:08:47;;;;;;;8.45;2.78;;;;;;;4.62;100.00;100704.69;5038947;28;20513;-67
2023/12/05 04:11:14;;;;;;;8.95;2.50;;;;;;;4.63;100.00;100711.56;5064827;28;20407;-67
2023/12/05 04:13:42;;;;;;;9.45;2.35;;;;;;;4.48;100.00;100712.63;5050283;28;20050;-68
2023/12/05 04:16:09;;;;;;;8.07;2.95;;;;;;;4.35;100.00;100704.13;5036085;28;20069;-68
2023/12/05 04:18:35;;;;;;;8.10;2.17;;;;;;;4.58;100.00;100700.38;5057313;28;20048;-68
2023/12/05 04:21:02;;;;;;;9.20;2.70;;;;;;;4.55;100.00;100708.19;5049759;28;20067;-67
2023/12/05 04:23:29;;;;;;;10.15;3.33;;;;;;;4.25;100.00;100694.78;5060422;28;20548;-67
2023/12/05 04:25:56;;;;;;;8.98;2.25;;;;;;;4.58;100.00;100703.00;5039764;28;20056;-68
2023/12/05 04:28:22;;;;;;;7.75;2.67;;;;;;;4.78;100.00;100710.50;5049077;28;20083;-68
2023/12/05 04:30:49;;;;;;;7.82;2.58;;;;;;;4.50;100.00;100699.66;5056652;28;20486;-68
2023/12/05 04:33:16;;;;;;;8.43;2.55;;;;;;;4.51;100.00;100711.72;5053563;28;20049;-68
2023/12/05 04:35:42;;;;;;;10.35;2.42;;;;;;;4.42;100.00;100704.06;5048310;28;20501;-68
2023/12/05 04:38:09;;;;;;;8.55;2.78;;;;;;;4.38;100.00;100704.09;5048650;28;20143;-68
2023/12/05 04:40:36;;;;;;;7.88;2.28;;;;;;;4.42;100.00;100709.25;5048384;28;20057;-68
2023/12/05 04:43:02;;;;;;;7.53;2.83;;;;;;;4.50;100.00;100699.66;5036934;28;20060;-68
2023/12/05 04:45:29;;;;;;;9.45;2.35;;;;;;;4.64;100.00;100702.03;5064981;28;20065;-68
2023/12/05 04:47:56;;;;;;;9.77;3.22;;;;;;;4.71;100.00;100707.16;5039995;28;20445;-68
2023/12/05 04:50:23;;;;;;;12.57;2.63;;;;;;;4.49;100.00;100719.53;5063211;28;20063;-68
2023/12/05 04:52:50;;;;;;;6.95;2.25;;;;;;;4.70;100.00;100715.78;5050458;28;20068;-68
2023/12/05 04:55:16;;;;;;;8.70;2.17;;;;;;;4.77;100.00;100729.53;5059611;28;20474;-68
2023/12/05 04:57:43;;;;;;;7.78;2.22;;;;;;;4.90;100.00;100725.88;5047643;28;20056;-68
2023/12/05 05:00:12;;;;;;;9.63;2.58;;;;;;;4.77;100.00;100720.91;5048134;28;20053;-68
2023/12/05 05:02:39;;;;;;;7.07;2.42;;;;;;;4.73;100.00;100720.09;5048080;28;20045;-68
2023/12/05 05:05:06;;;;;;;6.13;2.00;;;;;;;4.88;100.00;100726.78;5035973;28;20049;-68
2023/12/05 05:07:33;;;;;;;12.82;2.50;;;;;;;4.76;100.00;100720.03;5043746;28;20060;-68
2023/12/05 05:10:00;;;;;;;5.35;1.90;;;;;;;4.76;100.00;100714.84;5037036;28;20061;-68
2023/12/05 05:12:27;;;;;;;9.75;3.35;;;;;;;4.68;100.00;100727.06;5065738;28;20055;-68
2023/12/05 05:14:54;;;;;;;8.82;2.20;;;;;;;4.59;100.00;100730.66;5064661;28;20531;-67
2023/12/05 05:17:21;;;;;;;5.90;2.15;;;;;;;4.74;100.00;100724.38;5055915;28;20064;-68
2023/12/05 05:19:48;;;;;;;6.53;2.22;;;;;;;4.60;100.00;100714.19;5059834;28;20131;-68
2023/12/05 05:22:15;;;;;;;9.80;2.28;;;;;;;4.67;100.00;100722.75;5058625;28;20491;-68
2023/12/05 05:24:42;;;;;;;7.47;2.08;;;;;;;4.71;100.00;100724.41;5051453;28;20048;-69
2023/12/05 05:27:08;;;;;;;8.60;1.85;;;;;;;4.73;100.00;100726.13;5052436;28;20055;-68
2023/12/05 05:29:35;;;;;;;4.03;1.60;;;;;;;4.74;100.00;100727.81;5055260;28;20426;-67
2023/12/05 05:32:02;;;;;;;6.25;2.00;;;;;;;4.78;100.00;100743.34;5057822;28;20049;-67
2023/12/05 05:34:28;;;;;;;3.13;1.40;;;;;;;4.86;100.00;100741.53;5050888;28;20460;-67
2023/12/05 05:36:56;;;;;;;4.53;1.73;;;;;;;4.90;100.00;100748.38;5049048;28;20644;-67
2023/12/05 05:39:22;;;;;;;5.90;1.92;;;;;;;4.73;100.00;100749.47;5032637;28;20437;-67
2023/12/05 05:41:50;;;;;;;7.13;3.55;;;;;;;4.75;100.00;100747.72;5046041;28;20495;-67
2023/12/05 05:44:17;;;;;;;5.43;1.80;;;;;;;4.56;100.00;100748.81;5053956;28;20072;-67
2023/12/05 05:46:43;;;;;;;6.13;2.30;;;;;;;4.50;100.00;100757.56;5055526;28;20477;-67
2023/12/05 05:49:10;;;;;;;5.45;1.60;;;;;;;4.54;100.00;100760.97;5070952;28;20138;-67
2023/12/05 05:51:37;;;;;;;4.97;1.92;;;;;;;4.67;100.00;100769.44;5067615;28;20053;-67
2023/12/05 05:54:04;;;;;;;5.28;1.90;;;;;;;4.53;100.00;100773.06;5052410;28;20403;-67
2023/12/05 05:56:37;;;;;;;5.18;1.90;;;;;;;4.66;100.00;100771.19;5066131;28;20052;-67
2023/12/05 05:59:04;;;;;;;4.40;1.70;;;;;;;4.85;100.00;100794.28;5043588;28;20064;-67
2023/12/05 06:01:30;;;;;;;4.72;1.77;;;;;;;4.87;100.00;100776.94;5065419;28;20060;-66
2023/12/05 06:03:57;;;;;;;6.90;2.33;;;;;;;4.80;100.00;100780.50;5048259;28;20088;-66
2023/12/05 06:06:24;;;;;;;6.53;2.15;;;;;;;4.67;100.00;100770.28;5048758;28;20154;-66
2023/12/05 06:08:51;;;;;;;7.55;2.30;;;;;;;4.66;100.00;100778.13;5051385;28;20434;-67
2023/12/05 06:11:17;;;;;;;13.75;3.55;;;;;;;4.57;100.00;100782.53;5053768;28;20055;-66
2023/12/05 06:13:44;;;;;;;8.45;1.95;;;;;;;4.57;100.00;100782.53;5059365;28;20041;-66
2023/12/05 06:16:11;;;;;;;7.00;1.90;;;;;;;4.48;100.00;100768.78;5039413;28;20049;-67
2023/12/05 06:18:38;;;;;;;9.75;2.75;;;;;;;4.46;100.00;100774.03;5051164;28;20049;-66
2023/12/05 06:21:05;;;;;;;11.43;2.60;;;;;;;4.51;100.00;100792.09;5056029;28;20049;-66
2023/12/05 06:23:32;;;;;;;10.38;2.80;;;;;;;4.29;100.00;100779.41;5050270;28;20071;-66
2023/12/05 06:25:58;;;;;;;8.00;2.22;;;;;;;4.36;100.00;100787.97;5050983;28;20053;-66
2023/12/05 06:28:25;;;;;;;8.23;2.80;;;;;;;4.36;100.00;100791.41;5051341;28;20426;-66
2023/12/05 06:30:52;;;;;;;7.50;1.80;;;;;;;4.32;100.00;100781.06;5051160;28;20045;-66
2023/12/05 06:33:19;;;;;;;9.95;2.45;;;;;;;4.36;100.00;100760.31;5049402;28;20056;-66
2023/12/05 06:35:45;;;;;;;6.78;2.58;;;;;;;4.41;100.00;100793.09;5038129;28;20052;-67
2023/12/05 06:38:13;;;;;;;9.00;2.05;;;;;;;4.57;100.00;100797.25;5049362;28;20407;-67
2023/12/05 06:40:40;;;;;;;9.07;1.98;;;;;;;4.59;100.00;100802.41;5045730;28;20414;-67
2023/12/05 06:43:07;;;;;;;7.57;2.00;;;;;;;4.49;100.00;100796.47;5042022;28;20055;-67
2023/12/05 06:45:34;;;;;;;5.90;2.25;;;;;;;4.49;100.00;100802.50;5049405;28;20049;-66
2023/12/05 06:48:01;;;;;;;12.82;3.97;;;;;;;4.46;100.00;100792.19;5049513;28;20203;-67
2023/12/05 06:50:30;;;;;;;13.35;4.10;;;;;;;4.43;100.00;100805.16;5050409;28;20091;-66
2023/12/05 06:52:59;;;;;;;10.43;3.38;;;;;;;4.45;100.00;100812.94;5050334;28;20056;-66
2023/12/05 06:55:27;;;;;;;9.73;3.45;;;;;;;4.28;100.00;100810.50;5049501;28;20081;-66
2023/12/05 06:57:53;;;;;;;11.25;3.67;;;;;;;4.33;100.00;100801.81;5049641;28;20045;-67
2023/12/05 07:00:20;;;;;;;8.10;2.60;;;;;;;4.45;100.00;100810.34;5050244;28;20057;-67
2023/12/05 07:02:47;;;;;;;8.48;2.45;;;;;;;4.28;100.00;100784.59;5053830;28;20127;-67
2023/12/05 07:05:14;;;;;;;6.97;2.63;;;;;;;4.37;100.00;100802.63;5043879;28;20065;-67
2023/12/05 07:07:41;;;;;;;10.70;2.50;;;;;;;4.34;100.00;100811.31;5052329;28;20148;-67
2023/12/05 07:10:08;;;;;;;6.57;2.10;;;;;;;4.41;100.00;100816.41;5050147;28;20540;-67
2023/12/05 07:12:35;;;;;;;9.45;2.70;;;;;;;4.30;100.00;100807.03;5050410;28;20057;-67
2023/12/05 07:15:03;;;;;;;6.35;2.05;;;;;;;4.34;100.00;100824.28;5057575;28;20066;-67
2023/12/05 07:17:30;;;;;;;8.93;2.20;;;;;;;4.29;100.00;100823.47;5051004;28;20045;-67
2023/12/05 07:19:57;;;;;;;5.38;2.00;;;;;;;4.11;100.00;100815.88;5050024;28;20087;-67
2023/12/05 07:22:23;;;;;;;7.55;2.45;;;;;;;4.10;100.00;100830.56;5050239;28;20055;-67
2023/12/05 07:24:50;;;;;;;7.60;2.40;;;;;;;3.99;100.00;100819.44;5049123;28;20052;-67
2023/12/05 07:27:17;;;;;;;6.10;2.47;;;;;;;3.96;100.00;100828.06;5049946;28;20041;-67
2023/12/05 07:29:44;;;;;;;4.95;1.88;;;;;;;3.92;100.00;100831.56;5049402;28;20040;-67
2023/12/05 07:32:11;;;;;;;5.53;2.10;;;;;;;3.96;100.00;100838.44;5049870;28;20483;-66
2023/12/05 07:34:39;;;;;;;5.28;1.90;;;;;;;3.94;100.00;100826.38;5043636;28;20049;-66
2023/12/05 07:37:05;;;;;;;8.48;2.00;;;;;;;3.88;100.00;100831.59;5040365;28;20043;-67
2023/12/05 07:39:32;;;;;;;4.85;1.80;;;;;;;3.85;100.00;100844.59;5041700;28;20135;-67
2023/12/05 07:41:59;;;;;;;4.10;1.70;;;;;;;3.73;100.00;100843.81;5039125;28;20684;-67
2023/12/05 07:44:27;;;;;;;6.78;2.00;;;;;;;3.79;100.00;100853.28;5043300;28;20414;-67
2023/12/05 07:46:54;;;;;;;4.38;1.70;;;;;;;3.83;100.00;100843.75;5050265;28;20063;-67
2023/12/05 07:49:21;;;;;;;5.60;1.75;;;;;;;3.79;100.00;100853.28;5044857;28;20053;-67
2023/12/05 07:51:48;;;;;;;5.03;1.92;;;;;;;3.74;100.00;100848.13;5047900;28;20403;-67
2023/12/05 07:54:15;;;;;;;4.63;1.80;;;;;;;3.61;100.00;100839.59;5047467;28;20130;-66
2023/12/05 07:56:42;;;;;;;4.60;1.63;;;;;;;3.67;100.00;100859.41;5041076;28;20128;-66
2023/12/05 07:59:09;;;;;;;3.10;1.35;;;;;;;3.60;100.00;100853.41;5048785;28;20080;-66
2023/12/05 08:01:36;;;;;;;5.75;1.98;;;;;;;3.70;100.00;100876.63;5047362;28;20495;-66
2023/12/05 08:04:02;;;;;;;6.20;2.38;;;;;;;3.59;100.00;100880.19;5044876;28;20102;-66
2023/12/05 08:06:29;;;;;;;54.63;50.20;;;;;;;3.57;100.00;100881.91;5044496;28;20053;-66
2023/12/05 08:08:56;;;;;;;13.85;10.30;;;;;;;3.73;100.00;100887.00;5034625;28;20775;-69
2023/12/05 08:11:23;;;;;;;8.48;5.43;;;;;;;3.79;100.00;100894.72;5046152;28;20053;-70
2023/12/05 08:13:49;;;;;;;8.55;4.90;;;;;;;3.72;100.00;100886.13;5046634;28;20409;-69
2023/12/05 08:16:16;;;;;;;11.25;4.10;;;;;;;3.84;100.00;100903.28;5045120;28;20133;-70
2023/12/05 08:18:43;;;;;;;9.00;3.28;;;;;;;3.50;100.00;100851.75;5046994;28;20044;-70
2023/12/05 08:21:10;;;;;;;7.03;2.72;;;;;;;3.71;100.00;100881.81;5047432;28;20048;-70
2023/12/05 08:23:37;;;;;;;7.90;2.70;;;;;;;3.85;100.00;100894.66;5044625;28;20087;-70
2023/12/05 08:26:04;;;;;;;5.38;2.10;;;;;;;3.78;100.00;100893.84;5048277;28;20403;-70
2023/12/05 08:28:32;;;;;;;4.85;2.17;;;;;;;3.71;100.00;100881.81;5044651;28;20045;-70
2023/12/05 08:30:59;;;;;;;5.88;2.42;;;;;;;3.66;100.00;100880.13;5062513;28;20268;-70
2023/12/05 08:33:25;;;;;;;6.15;2.22;;;;;;;3.57;100.00;100878.47;5034955;28;20057;-69
2023/12/05 08:35:52;;;;;;;5.97;2.40;;;;;;;3.57;100.00;100889.66;5037683;28;20061;-69
2023/12/05 08:38:19;;;;;;;4.88;1.75;;;;;;;3.43;100.00;100863.00;5048629;28;20057;-69
2023/12/05 08:40:45;;;;;;;15.73;3.65;;;;;;;3.48;100.00;100879.38;5048619;28;20056;-69
2023/12/05 08:43:12;;;;;;;5.85;1.88;;;;;;;3.48;100.00;100881.13;5047816;28;20466;-69
2023/12/05 08:45:39;;;;;;;5.15;1.85;;;;;;;3.59;100.00;100879.31;5037978;28;20687;-70
2023/12/05 08:48:06;;;;;;;4.68;1.55;;;;;;;3.65;100.00;100879.28;5052604;28;20471;-70
2023/12/05 08:50:33;;;;;;;5.45;1.92;;;;;;;3.67;100.00;100892.22;5053565;28;20049;-70
2023/12/05 08:53:00;;;;;;;4.57;1.98;;;;;;;3.64;100.00;100877.53;5048351;28;20045;-70
2023/12/05 08:55:27;;;;;;;6.10;2.17;;;;;;;3.77;100.00;100884.38;5045513;28;20053;-70
2023/12/05 08:57:53;;;;;;;6.22;2.30;;;;;;;3.84;100.00;100886.91;5048034;28;20042;-70
2023/12/05 09:00:20;;;;;;;5.40;2.00;;;;;;;3.91;100.00;100888.56;5045234;28;20065;-71
2023/12/05 09:02:47;;;;;;;6.55;2.13;;;;;;;3.86;100.00;100891.22;5053261;28;20040;-70
2023/12/05 09:05:14;;;;;;;8.13;2.35;;;;;;;3.95;100.00;100893.72;5052465;28;20131;-70
2023/12/05 09:07:41;;;;;;;6.57;1.98;;;;;;;3.88;100.00;100894.66;5044475;28;20049;-69
2023/12/05 09:10:08;;;;;;;4.13;1.92;;;;;;;3.89;100.00;100886.00;5052077;28;20049;-69
2023/12/05 09:12:35;;;;;;;3.00;1.48;;;;;;;4.01;100.00;100897.16;5053381;28;20052;-70
2023/12/05 09:15:02;;;;;;;4.65;1.73;;;;;;;3.92;100.00;100888.56;5049335;28;20080;-70
2023/12/05 09:17:28;;;;;;;4.20;1.67;;;;;;;4.03;100.00;100888.47;5048679;28;20052;-70
2023/12/05 09:19:55;;;;;;;5.55;1.90;;;;;;;3.99;100.00;100891.97;5045272;28;20081;-70
2023/12/05 09:22:22;;;;;;;5.38;1.67;;;;;;;4.08;100.00;100884.13;5048913;28;20056;-70
2023/12/05 09:24:49;;;;;;;6.28;2.40;;;;;;;4.08;100.00;100880.69;5045188;28;20049;-70
2023/12/05 09:27:15;;;;;;;5.32;1.80;;;;;;;4.05;100.00;100876.38;5051385;28;20451;-70
2023/12/05 09:29:42;;;;;;;3.95;1.73;;;;;;;4.14;100.00;100885.78;5052963;28;20044;-70
2023/12/05 09:32:17;;;;;;;4.38;1.75;;;;;;;4.00;100.00;100878.13;5052893;28;20111;-70
2023/12/05 09:34:44;;;;;;;8.23;2.20;;;;;;;3.82;100.00;100867.94;5046168;28;20052;-70
2023/12/05 09:37:11;;;;;;;4.57;2.03;;;;;;;4.08;100.00;100883.28;5051630;28;20106;-70
2023/12/05 09:39:40;;;;;;;6.88;1.80;;;;;;;4.21;100.00;100892.66;5052842;28;20049;-70
2023/12/05 09:42:11;;;;;;;4.78;1.90;;;;;;;4.09;100.00;100867.72;5052400;28;20446;-70
2023/12/05 09:44:43;;;;;;;6.45;2.20;;;;;;;4.13;100.00;100884.94;5045162;28;20071;-70
2023/12/05 09:47:14;;;;;;;5.53;2.20;;;;;;;4.16;100.00;100886.63;5051686;28;20051;-70
2023/12/05 09:49:42;;;;;;;8.60;2.22;;;;;;;4.11;100.00;100886.69;5051900;28;20052;-70
2023/12/05 09:52:09;;;;;;;4.95;1.80;;;;;;;4.18;100.00;100895.28;5052312;28;20057;-70
2023/12/05 09:54:37;;;;;;;5.45;1.85;;;;;;;4.01;100.00;100866.06;5047484;28;20049;-70
2023/12/05 09:57:05;;;;;;;6.53;2.05;;;;;;;4.16;100.00;100889.22;5047748;28;20479;-70
2023/12/05 09:59:32;;;;;;;4.28;1.77;;;;;;;4.06;100.00;100875.50;5047930;28;20127;-70
2023/12/05 10:02:02;;;;;;;5.68;2.60;;;;;;;4.21;100.00;100897.81;5052218;28;20139;-70
2023/12/05 10:04:37;;;;;;;5.40;2.00;;;;;;;4.15;100.00;100890.97;5041656;28;20042;-70
2023/12/05 10:07:04;;;;;;;5.18;1.83;;;;;;;4.10;100.00;100881.53;5052470;28;20049;-70
2023/12/05 10:09:32;;;;;;;7.43;2.55;;;;;;;4.08;100.00;100883.28;5051284;28;20068;-70
2023/12/05 10:11:59;;;;;;;8.80;2.72;;;;;;;4.13;100.00;100878.91;5067699;28;20074;-70
2023/12/05 10:14:26;;;;;;;6.22;2.58;;;;;;;4.17;100.00;100902.19;5065122;28;20478;-70
2023/12/05 10:16:54;;;;;;;4.05;1.70;;;;;;;4.29;100.00;100884.81;5071184;28;20521;-70
2023/12/05 10:19:21;;;;;;;5.63;1.80;;;;;;;4.34;100.00;100891.69;5055218;28;20086;-70
2023/12/05 10:21:50;;;;;;;5.00;2.00;;;;;;;4.42;100.00;100903.69;5045930;28;20102;-70
2023/12/05 10:24:17;;;;;;;5.45;2.10;;;;;;;4.48;100.00;100901.91;5048390;28;20501;-70
2023/12/05 10:26:46;;;;;;;4.50;1.80;;;;;;;4.60;100.00;100910.44;5044072;28;20049;-70
2023/12/05 10:29:16;;;;;;;5.38;2.08;;;;;;;4.61;100.00;100914.75;5051059;28;20548;-70
2023/12/05 10:31:43;;;;;;;5.53;1.92;;;;;;;4.59;100.00;100912.19;5050881;28;20415;-70
2023/12/05 10:34:10;;;;;;;5.35;1.80;;;;;;;4.60;100.00;100913.03;5050902;28;20794;-70
2023/12/05 10:36:37;;;;;;;6.07;2.20;;;;;;;4.64;100.00;100914.72;5043974;28;20046;-70
2023/12/05 10:39:07;;;;;;;4.97;1.90;;;;;;;4.74;100.00;100922.38;5049811;28;20081;-70
2023/12/05 10:41:33;;;;;;;3.95;1.80;;;;;;;4.76;100.00;100914.59;5044390;28;20421;-72
2023/12/05 10:44:02;;;;;;;5.03;1.70;;;;;;;4.86;100.00;100929.19;5046913;28;20044;-70
2023/12/05 10:46:34;;;;;;;4.10;1.90;;;;;;;4.82;100.00;100917.13;5050130;28;20170;-70
2023/12/05 10:49:04;;;;;;;4.00;1.52;;;;;;;4.82;100.00;100917.13;5043368;28;20049;-70
2023/12/05 10:51:30;;;;;;;3.80;1.70;;;;;;;4.95;100.00;100920.44;5051027;28;20478;-70
2023/12/05 10:53:58;;;;;;;5.28;2.00;;;;;;;4.94;100.00;100922.19;5050395;28;20384;-70
2023/12/05 10:56:26;;;;;;;6.78;1.95;;;;;;;5.08;100.00;100929.81;5041871;28;20106;-70
2023/12/05 10:58:53;;;;;;;5.32;1.83;;;;;;;5.13;100.00;100927.13;5045740;28;20045;-70
2023/12/05 11:01:21;;;;;;;3.63;1.40;;;;;;;5.04;100.00;100896.13;5046634;28;20045;-70
2023/12/05 11:03:50;;;;;;;5.32;1.73;;;;;;;5.34;100.00;100933.81;5034278;28;20053;-70
2023/12/05 11:06:17;;;;;;;5.88;1.80;;;;;;;5.30;100.00;100917.41;5046959;28;20167;-70
2023/12/05 11:08:44;;;;;;;5.07;1.90;;;;;;;5.05;100.00;100908.22;5055060;28;20095;-70
2023/12/05 11:11:13;;;;;;;5.13;1.90;;;;;;;5.31;100.00;100913.06;5060042;28;20044;-70
2023/12/05 11:13:40;;;;;;;2.83;1.50;;;;;;;5.24;100.00;100903.63;5046190;28;20052;-69
2023/12/05 11:16:16;;;;;;;5.32;1.90;;;;;;;5.25;100.00;100914.00;5051011;28;20049;-69
2023/12/05 11:18:45;;;;;;;5.32;1.92;;;;;;;4.99;100.00;100905.69;5065054;28;20225;-70
2023/12/05 11:21:15;;;;;;;4.97;1.83;;;;;;;5.16;100.00;100916.72;5048659;28;20084;-70
2023/12/05 11:23:58;;;;;;;4.55;1.77;;;;;;;5.04;100.00;100915.13;5058758;28;20406;-70
2023/12/05 11:27:10;;;;;;;6.43;2.17;;;;;;;5.13;100.00;100907.25;5052218;28;20060;-70